sensor_id;sensor_type;location;lat;lon;timestamp;temperature;humidity
67862;DHT22;54665;51.462;6.698;2024-03-08T00:01:28;3.94;76.25
67862;DHT22;54665;51.462;6.698;2024-03-08T00:03:28;3.90;76.50
67862;DHT22;54665;51.462;6.698;2024-03-08T00:05:29;3.87;76.56
67862;DHT22;54665;51.462;6.698;2024-03-08T00:07:29;3.81;76.67
67862;DHT22;54665;51.462;6.698;2024-03-08T00:09:29;3.74;76.57
67862;DHT22;54665;51.462;6.698;2024-03-08T00:11:29;3.74;76.94
67862;DHT22;54665;51.462;6.698;2024-03-08T00:13:30;3.61;77.01
67862;DHT22;54665;51.462;6.698;2024-03-08T00:15:30;3.61;77.42
67862;DHT22;54665;51.462;6.698;2024-03-08T00:17:30;3.59;77.23
67862;DHT22;54665;51.462;6.698;2024-03-08T00:19:30;3.52;77.53
67862;DHT22;54665;51.462;6.698;2024-03-08T00:21:31;3.52;77.87
67862;DHT22;54665;51.462;6.698;2024-03-08T00:23:31;3.39;78.21
67862;DHT22;54665;51.462;6.698;2024-03-08T00:25:31;3.43;77.76
67862;DHT22;54665;51.462;6.698;2024-03-08T00:27:32;3.53;78.34
67862;DHT22;54665;51.462;6.698;2024-03-08T00:29:32;3.34;78.51
67862;DHT22;54665;51.462;6.698;2024-03-08T00:31:32;3.39;78.18
67862;DHT22;54665;51.462;6.698;2024-03-08T00:33:32;3.33;78.28
67862;DHT22;54665;51.462;6.698;2024-03-08T00:35:33;3.29;78.51
67862;DHT22;54665;51.462;6.698;2024-03-08T00:37:33;3.29;78.39
67862;DHT22;54665;51.462;6.698;2024-03-08T00:39:33;3.26;78.69
67862;DHT22;54665;51.462;6.698;2024-03-08T00:41:34;3.39;78.81
67862;DHT22;54665;51.462;6.698;2024-03-08T00:43:34;3.32;78.61
67862;DHT22;54665;51.462;6.698;2024-03-08T00:45:35;3.30;78.64
67862;DHT22;54665;51.462;6.698;2024-03-08T00:47:35;3.27;78.96
67862;DHT22;54665;51.462;6.698;2024-03-08T00:49:35;3.19;79.20
67862;DHT22;54665;51.462;6.698;2024-03-08T00:51:36;3.23;78.98
67862;DHT22;54665;51.462;6.698;2024-03-08T00:53:36;3.18;79.07
67862;DHT22;54665;51.462;6.698;2024-03-08T00:55:36;3.15;79.07
67862;DHT22;54665;51.462;6.698;2024-03-08T00:57:37;3.13;79.24
67862;DHT22;54665;51.462;6.698;2024-03-08T00:59:38;2.96;79.38
67862;DHT22;54665;51.462;6.698;2024-03-08T01:01:39;3.09;78.93
67862;DHT22;54665;51.462;6.698;2024-03-08T01:03:39;3.11;79.09
67862;DHT22;54665;51.462;6.698;2024-03-08T01:05:39;3.06;79.19
67862;DHT22;54665;51.462;6.698;2024-03-08T01:07:40;2.85;79.37
67862;DHT22;54665;51.462;6.698;2024-03-08T01:09:40;2.96;79.36
67862;DHT22;54665;51.462;6.698;2024-03-08T01:11:40;2.91;79.31
67862;DHT22;54665;51.462;6.698;2024-03-08T01:13:41;2.75;79.98
67862;DHT22;54665;51.462;6.698;2024-03-08T01:15:41;2.71;80.51
67862;DHT22;54665;51.462;6.698;2024-03-08T01:17:41;2.79;80.20
67862;DHT22;54665;51.462;6.698;2024-03-08T01:19:42;2.75;79.80
67862;DHT22;54665;51.462;6.698;2024-03-08T01:21:42;2.74;79.67
67862;DHT22;54665;51.462;6.698;2024-03-08T01:23:42;2.88;79.47
67862;DHT22;54665;51.462;6.698;2024-03-08T01:25:42;2.79;79.44
67862;DHT22;54665;51.462;6.698;2024-03-08T01:27:43;2.92;79.20
67862;DHT22;54665;51.462;6.698;2024-03-08T01:29:43;3.03;78.67
67862;DHT22;54665;51.462;6.698;2024-03-08T01:31:43;2.99;78.52
67862;DHT22;54665;51.462;6.698;2024-03-08T01:33:44;2.89;78.78
67862;DHT22;54665;51.462;6.698;2024-03-08T01:35:44;2.78;79.11
67862;DHT22;54665;51.462;6.698;2024-03-08T01:37:44;2.89;78.86
67862;DHT22;54665;51.462;6.698;2024-03-08T01:39:44;2.91;79.18
67862;DHT22;54665;51.462;6.698;2024-03-08T01:41:45;2.88;78.80
67862;DHT22;54665;51.462;6.698;2024-03-08T01:43:45;2.85;78.70
67862;DHT22;54665;51.462;6.698;2024-03-08T01:45:46;2.85;79.38
67862;DHT22;54665;51.462;6.698;2024-03-08T01:47:46;2.88;79.18
67862;DHT22;54665;51.462;6.698;2024-03-08T01:49:47;2.82;79.42
67862;DHT22;54665;51.462;6.698;2024-03-08T01:51:48;2.68;80.87
67862;DHT22;54665;51.462;6.698;2024-03-08T01:53:50;2.77;79.73
67862;DHT22;54665;51.462;6.698;2024-03-08T01:55:52;2.70;79.76
67862;DHT22;54665;51.462;6.698;2024-03-08T01:57:54;2.77;79.43
67862;DHT22;54665;51.462;6.698;2024-03-08T01:59:55;2.72;79.33
67862;DHT22;54665;51.462;6.698;2024-03-08T02:02:00;2.79;79.11
67862;DHT22;54665;51.462;6.698;2024-03-08T02:04:01;2.78;79.04
67862;DHT22;54665;51.462;6.698;2024-03-08T02:06:01;2.75;79.00
67862;DHT22;54665;51.462;6.698;2024-03-08T02:08:01;2.77;79.26
67862;DHT22;54665;51.462;6.698;2024-03-08T02:10:02;2.79;78.92
67862;DHT22;54665;51.462;6.698;2024-03-08T02:12:02;2.72;78.77
67862;DHT22;54665;51.462;6.698;2024-03-08T02:14:07;2.79;78.82
67862;DHT22;54665;51.462;6.698;2024-03-08T02:16:08;2.85;78.58
67862;DHT22;54665;51.462;6.698;2024-03-08T02:18:08;2.81;78.74
67862;DHT22;54665;51.462;6.698;2024-03-08T02:20:09;2.68;79.23
67862;DHT22;54665;51.462;6.698;2024-03-08T02:22:09;2.70;79.14
67862;DHT22;54665;51.462;6.698;2024-03-08T02:24:09;2.74;79.15
67862;DHT22;54665;51.462;6.698;2024-03-08T02:26:10;2.64;79.32
67862;DHT22;54665;51.462;6.698;2024-03-08T02:28:11;2.66;79.37
67862;DHT22;54665;51.462;6.698;2024-03-08T02:30:12;2.64;79.30
67862;DHT22;54665;51.462;6.698;2024-03-08T02:32:12;2.68;79.16
67862;DHT22;54665;51.462;6.698;2024-03-08T02:34:12;2.57;79.59
67862;DHT22;54665;51.462;6.698;2024-03-08T02:36:13;2.52;79.66
67862;DHT22;54665;51.462;6.698;2024-03-08T02:38:15;2.47;79.96
67862;DHT22;54665;51.462;6.698;2024-03-08T02:40:15;2.51;79.96
67862;DHT22;54665;51.462;6.698;2024-03-08T02:42:15;2.41;79.91
67862;DHT22;54665;51.462;6.698;2024-03-08T02:44:16;2.29;80.78
67862;DHT22;54665;51.462;6.698;2024-03-08T02:46:16;2.41;80.75
67862;DHT22;54665;51.462;6.698;2024-03-08T02:48:16;2.55;80.31
67862;DHT22;54665;51.462;6.698;2024-03-08T02:50:17;2.47;80.22
67862;DHT22;54665;51.462;6.698;2024-03-08T02:52:17;2.42;80.47
67862;DHT22;54665;51.462;6.698;2024-03-08T02:54:18;2.41;80.37
67862;DHT22;54665;51.462;6.698;2024-03-08T02:56:18;2.34;80.79
67862;DHT22;54665;51.462;6.698;2024-03-08T02:58:19;2.38;80.26
67862;DHT22;54665;51.462;6.698;2024-03-08T03:00:19;2.44;80.25
67862;DHT22;54665;51.462;6.698;2024-03-08T03:02:20;2.34;81.07
67862;DHT22;54665;51.462;6.698;2024-03-08T03:04:20;2.40;80.82
67862;DHT22;54665;51.462;6.698;2024-03-08T03:06:20;2.41;80.64
67862;DHT22;54665;51.462;6.698;2024-03-08T03:08:21;2.37;80.85
67862;DHT22;54665;51.462;6.698;2024-03-08T03:10:22;2.44;80.59
67862;DHT22;54665;51.462;6.698;2024-03-08T03:12:22;2.48;80.23
67862;DHT22;54665;51.462;6.698;2024-03-08T03:14:22;2.38;80.79
67862;DHT22;54665;51.462;6.698;2024-03-08T03:16:23;2.27;80.77
67862;DHT22;54665;51.462;6.698;2024-03-08T03:18:23;2.26;82.24
67862;DHT22;54665;51.462;6.698;2024-03-08T03:20:23;2.38;81.53
67862;DHT22;54665;51.462;6.698;2024-03-08T03:22:23;2.36;81.12
67862;DHT22;54665;51.462;6.698;2024-03-08T03:24:24;2.24;81.44
67862;DHT22;54665;51.462;6.698;2024-03-08T03:26:24;2.31;81.47
67862;DHT22;54665;51.462;6.698;2024-03-08T03:28:24;2.20;81.84
67862;DHT22;54665;51.462;6.698;2024-03-08T03:30:25;2.17;82.16
67862;DHT22;54665;51.462;6.698;2024-03-08T03:32:25;2.20;81.86
67862;DHT22;54665;51.462;6.698;2024-03-08T03:34:25;2.19;81.97
67862;DHT22;54665;51.462;6.698;2024-03-08T03:36:26;2.10;82.35
67862;DHT22;54665;51.462;6.698;2024-03-08T03:38:26;2.07;82.32
67862;DHT22;54665;51.462;6.698;2024-03-08T03:40:28;1.86;82.46
67862;DHT22;54665;51.462;6.698;2024-03-08T03:42:28;1.85;83.58
67862;DHT22;54665;51.462;6.698;2024-03-08T03:44:29;1.76;83.38
67862;DHT22;54665;51.462;6.698;2024-03-08T03:46:29;1.78;83.39
67862;DHT22;54665;51.462;6.698;2024-03-08T03:48:29;1.83;83.18
67862;DHT22;54665;51.462;6.698;2024-03-08T03:50:30;1.80;83.12
67862;DHT22;54665;51.462;6.698;2024-03-08T03:52:30;1.95;82.78
67862;DHT22;54665;51.462;6.698;2024-03-08T03:54:30;1.98;82.81
67862;DHT22;54665;51.462;6.698;2024-03-08T03:56:30;1.98;82.71
67862;DHT22;54665;51.462;6.698;2024-03-08T03:58:31;1.89;82.68
67862;DHT22;54665;51.462;6.698;2024-03-08T04:00:31;1.95;82.58
67862;DHT22;54665;51.462;6.698;2024-03-08T04:02:31;2.14;81.99
67862;DHT22;54665;51.462;6.698;2024-03-08T04:04:32;2.02;82.59
67862;DHT22;54665;51.462;6.698;2024-03-08T04:06:32;1.98;82.75
67862;DHT22;54665;51.462;6.698;2024-03-08T04:08:32;1.99;82.12
67862;DHT22;54665;51.462;6.698;2024-03-08T04:10:33;2.06;82.05
67862;DHT22;54665;51.462;6.698;2024-03-08T04:12:34;2.07;82.34
67862;DHT22;54665;51.462;6.698;2024-03-08T04:14:34;2.03;82.18
67862;DHT22;54665;51.462;6.698;2024-03-08T04:16:34;2.06;81.98
67862;DHT22;54665;51.462;6.698;2024-03-08T04:18:35;1.96;83.09
67862;DHT22;54665;51.462;6.698;2024-03-08T04:20:35;1.92;83.20
67862;DHT22;54665;51.462;6.698;2024-03-08T04:22:38;1.85;83.37
67862;DHT22;54665;51.462;6.698;2024-03-08T04:24:38;1.83;82.92
67862;DHT22;54665;51.462;6.698;2024-03-08T04:26:38;1.78;83.24
67862;DHT22;54665;51.462;6.698;2024-03-08T04:28:39;1.82;82.85
67862;DHT22;54665;51.462;6.698;2024-03-08T04:30:39;1.76;83.22
67862;DHT22;54665;51.462;6.698;2024-03-08T04:32:39;1.73;83.54
67862;DHT22;54665;51.462;6.698;2024-03-08T04:34:40;1.79;83.52
67862;DHT22;54665;51.462;6.698;2024-03-08T04:36:40;1.75;83.81
67862;DHT22;54665;51.462;6.698;2024-03-08T04:38:40;1.66;83.53
67862;DHT22;54665;51.462;6.698;2024-03-08T04:40:41;1.69;83.48
67862;DHT22;54665;51.462;6.698;2024-03-08T04:42:42;1.66;83.49
67862;DHT22;54665;51.462;6.698;2024-03-08T04:44:43;1.65;83.82
67862;DHT22;54665;51.462;6.698;2024-03-08T04:46:43;1.62;84.03
67862;DHT22;54665;51.462;6.698;2024-03-08T04:48:43;1.66;83.60
67862;DHT22;54665;51.462;6.698;2024-03-08T04:50:44;1.59;83.83
67862;DHT22;54665;51.462;6.698;2024-03-08T04:52:44;1.72;83.38
67862;DHT22;54665;51.462;6.698;2024-03-08T04:54:44;1.59;83.63
67862;DHT22;54665;51.462;6.698;2024-03-08T04:56:45;1.41;84.32
67862;DHT22;54665;51.462;6.698;2024-03-08T04:58:45;1.34;84.56
67862;DHT22;54665;51.462;6.698;2024-03-08T05:00:46;1.34;84.83
67862;DHT22;54665;51.462;6.698;2024-03-08T05:02:46;1.28;84.84
67862;DHT22;54665;51.462;6.698;2024-03-08T05:04:47;1.27;84.85
67862;DHT22;54665;51.462;6.698;2024-03-08T05:06:47;1.17;85.11
67862;DHT22;54665;51.462;6.698;2024-03-08T05:08:48;1.20;84.64
67862;DHT22;54665;51.462;6.698;2024-03-08T05:10:48;1.11;84.78
67862;DHT22;54665;51.462;6.698;2024-03-08T05:12:48;1.04;85.94
67862;DHT22;54665;51.462;6.698;2024-03-08T05:14:48;1.14;85.82
67862;DHT22;54665;51.462;6.698;2024-03-08T05:16:49;1.13;85.70
67862;DHT22;54665;51.462;6.698;2024-03-08T05:18:49;1.28;85.35
67862;DHT22;54665;51.462;6.698;2024-03-08T05:20:49;1.34;84.57
67862;DHT22;54665;51.462;6.698;2024-03-08T05:22:50;1.23;84.89
67862;DHT22;54665;51.462;6.698;2024-03-08T05:24:50;1.14;85.20
67862;DHT22;54665;51.462;6.698;2024-03-08T05:26:50;1.03;85.50
67862;DHT22;54665;51.462;6.698;2024-03-08T05:28:50;1.14;85.43
67862;DHT22;54665;51.462;6.698;2024-03-08T05:30:51;1.07;85.96
67862;DHT22;54665;51.462;6.698;2024-03-08T05:32:51;1.11;85.58
67862;DHT22;54665;51.462;6.698;2024-03-08T05:34:51;1.14;85.89
67862;DHT22;54665;51.462;6.698;2024-03-08T05:36:51;1.21;85.76
67862;DHT22;54665;51.462;6.698;2024-03-08T05:38:52;1.20;85.62
67862;DHT22;54665;51.462;6.698;2024-03-08T05:40:52;1.31;85.73
67862;DHT22;54665;51.462;6.698;2024-03-08T05:42:52;1.28;85.28
67862;DHT22;54665;51.462;6.698;2024-03-08T05:44:53;1.18;85.85
67862;DHT22;54665;51.462;6.698;2024-03-08T05:46:53;1.18;85.74
67862;DHT22;54665;51.462;6.698;2024-03-08T05:48:53;1.20;85.38
67862;DHT22;54665;51.462;6.698;2024-03-08T05:50:53;1.04;85.71
67862;DHT22;54665;51.462;6.698;2024-03-08T05:52:54;1.04;86.03
67862;DHT22;54665;51.462;6.698;2024-03-08T05:54:54;1.01;85.84
67862;DHT22;54665;51.462;6.698;2024-03-08T05:56:54;1.13;85.92
67862;DHT22;54665;51.462;6.698;2024-03-08T05:58:55;1.16;86.06
67862;DHT22;54665;51.462;6.698;2024-03-08T06:00:55;1.25;85.87
67862;DHT22;54665;51.462;6.698;2024-03-08T06:02:56;1.18;85.71
67862;DHT22;54665;51.462;6.698;2024-03-08T06:04:56;1.35;85.55
67862;DHT22;54665;51.462;6.698;2024-03-08T06:06:57;1.32;84.95
67862;DHT22;54665;51.462;6.698;2024-03-08T06:08:57;1.27;85.45
67862;DHT22;54665;51.462;6.698;2024-03-08T06:10:57;1.27;85.43
67862;DHT22;54665;51.462;6.698;2024-03-08T06:12:57;1.39;85.38
67862;DHT22;54665;51.462;6.698;2024-03-08T06:14:58;1.34;84.87
67862;DHT22;54665;51.462;6.698;2024-03-08T06:16:58;1.13;85.96
67862;DHT22;54665;51.462;6.698;2024-03-08T06:18:58;1.32;85.73
67862;DHT22;54665;51.462;6.698;2024-03-08T06:20:59;1.28;85.50
67862;DHT22;54665;51.462;6.698;2024-03-08T06:22:59;1.41;84.97
67862;DHT22;54665;51.462;6.698;2024-03-08T06:25:00;1.44;84.79
67862;DHT22;54665;51.462;6.698;2024-03-08T06:27:00;1.41;84.46
67862;DHT22;54665;51.462;6.698;2024-03-08T06:29:00;1.47;84.74
67862;DHT22;54665;51.462;6.698;2024-03-08T06:31:02;1.47;85.05
67862;DHT22;54665;51.462;6.698;2024-03-08T06:33:02;1.51;84.39
67862;DHT22;54665;51.462;6.698;2024-03-08T06:35:06;1.45;84.60
67862;DHT22;54665;51.462;6.698;2024-03-08T06:37:06;1.47;84.56
67862;DHT22;54665;51.462;6.698;2024-03-08T06:39:07;1.51;84.65
67862;DHT22;54665;51.462;6.698;2024-03-08T06:41:08;1.68;83.97
67862;DHT22;54665;51.462;6.698;2024-03-08T06:43:08;1.69;84.49
67862;DHT22;54665;51.462;6.698;2024-03-08T06:45:08;1.75;84.22
67862;DHT22;54665;51.462;6.698;2024-03-08T06:47:09;1.79;84.14
67862;DHT22;54665;51.462;6.698;2024-03-08T06:49:09;1.89;83.79
67862;DHT22;54665;51.462;6.698;2024-03-08T06:51:09;1.89;83.59
67862;DHT22;54665;51.462;6.698;2024-03-08T06:53:10;1.82;83.81
67862;DHT22;54665;51.462;6.698;2024-03-08T06:55:10;1.95;83.32
67862;DHT22;54665;51.462;6.698;2024-03-08T06:57:11;1.96;83.50
67862;DHT22;54665;51.462;6.698;2024-03-08T06:59:11;2.13;83.23
67862;DHT22;54665;51.462;6.698;2024-03-08T07:01:13;2.21;82.89
67862;DHT22;54665;51.462;6.698;2024-03-08T07:03:13;2.26;82.06
67862;DHT22;54665;51.462;6.698;2024-03-08T07:05:14;2.31;81.75
67862;DHT22;54665;51.462;6.698;2024-03-08T07:07:15;2.47;81.55
67862;DHT22;54665;51.462;6.698;2024-03-08T07:09:15;2.41;81.13
67862;DHT22;54665;51.462;6.698;2024-03-08T07:11:16;2.60;80.67
67862;DHT22;54665;51.462;6.698;2024-03-08T07:13:16;2.55;80.17
67862;DHT22;54665;51.462;6.698;2024-03-08T07:15:16;2.82;80.14
67862;DHT22;54665;51.462;6.698;2024-03-08T07:17:17;2.77;80.40
67862;DHT22;54665;51.462;6.698;2024-03-08T07:19:17;2.85;79.67
67862;DHT22;54665;51.462;6.698;2024-03-08T07:21:17;2.91;79.44
67862;DHT22;54665;51.462;6.698;2024-03-08T07:23:18;3.05;79.34
67862;DHT22;54665;51.462;6.698;2024-03-08T07:25:18;2.96;79.22
67862;DHT22;54665;51.462;6.698;2024-03-08T07:27:18;3.08;79.31
67862;DHT22;54665;51.462;6.698;2024-03-08T07:29:19;3.13;79.16
67862;DHT22;54665;51.462;6.698;2024-03-08T07:31:19;3.19;79.29
67862;DHT22;54665;51.462;6.698;2024-03-08T07:33:19;3.22;79.03
67862;DHT22;54665;51.462;6.698;2024-03-08T07:35:20;3.27;78.70
67862;DHT22;54665;51.462;6.698;2024-03-08T07:37:20;3.08;78.81
67862;DHT22;54665;51.462;6.698;2024-03-08T07:39:20;3.26;78.89
67862;DHT22;54665;51.462;6.698;2024-03-08T07:41:20;3.32;78.70
67862;DHT22;54665;51.462;6.698;2024-03-08T07:43:21;3.34;78.71
67862;DHT22;54665;51.462;6.698;2024-03-08T07:45:21;3.53;77.98
67862;DHT22;54665;51.462;6.698;2024-03-08T07:47:21;3.67;78.19
67862;DHT22;54665;51.462;6.698;2024-03-08T07:49:21;3.70;78.34
67862;DHT22;54665;51.462;6.698;2024-03-08T07:51:22;3.64;77.98
67862;DHT22;54665;51.462;6.698;2024-03-08T07:53:22;3.81;77.80
67862;DHT22;54665;51.462;6.698;2024-03-08T07:55:22;4.02;77.54
67862;DHT22;54665;51.462;6.698;2024-03-08T07:57:23;4.62;76.09
67862;DHT22;54665;51.462;6.698;2024-03-08T07:59:23;5.08;75.01
67862;DHT22;54665;51.462;6.698;2024-03-08T08:01:23;5.27;73.20
67862;DHT22;54665;51.462;6.698;2024-03-08T08:03:23;5.10;73.58
67862;DHT22;54665;51.462;6.698;2024-03-08T08:05:24;5.15;74.20
67862;DHT22;54665;51.462;6.698;2024-03-08T08:07:24;5.24;73.57
67862;DHT22;54665;51.462;6.698;2024-03-08T08:09:24;5.34;72.77
67862;DHT22;54665;51.462;6.698;2024-03-08T08:11:28;5.32;72.83
67862;DHT22;54665;51.462;6.698;2024-03-08T08:13:28;5.27;72.54
67862;DHT22;54665;51.462;6.698;2024-03-08T08:15:28;5.51;72.60
67862;DHT22;54665;51.462;6.698;2024-03-08T08:17:29;5.85;71.50
67862;DHT22;54665;51.462;6.698;2024-03-08T08:19:29;5.82;71.98
67862;DHT22;54665;51.462;6.698;2024-03-08T08:21:29;6.03;71.56
67862;DHT22;54665;51.462;6.698;2024-03-08T08:23:29;5.70;72.08
67862;DHT22;54665;51.462;6.698;2024-03-08T08:25:30;5.92;72.05
67862;DHT22;54665;51.462;6.698;2024-03-08T08:27:30;6.24;71.02
67862;DHT22;54665;51.462;6.698;2024-03-08T08:29:30;6.00;71.62
67862;DHT22;54665;51.462;6.698;2024-03-08T08:31:32;6.27;69.89
67862;DHT22;54665;51.462;6.698;2024-03-08T08:33:32;6.63;69.74
67862;DHT22;54665;51.462;6.698;2024-03-08T08:35:33;6.85;69.24
67862;DHT22;54665;51.462;6.698;2024-03-08T08:37:33;7.26;68.72
67862;DHT22;54665;51.462;6.698;2024-03-08T08:39:33;7.06;67.27
67862;DHT22;54665;51.462;6.698;2024-03-08T08:41:34;7.29;67.41
67862;DHT22;54665;51.462;6.698;2024-03-08T08:43:34;7.39;67.33
67862;DHT22;54665;51.462;6.698;2024-03-08T08:45:34;7.75;66.49
67862;DHT22;54665;51.462;6.698;2024-03-08T08:47:35;7.30;66.94
67862;DHT22;54665;51.462;6.698;2024-03-08T08:49:36;7.49;66.92
67862;DHT22;54665;51.462;6.698;2024-03-08T08:51:36;7.74;65.99
67862;DHT22;54665;51.462;6.698;2024-03-08T08:53:37;7.78;67.18
67862;DHT22;54665;51.462;6.698;2024-03-08T08:55:40;7.98;65.47
67862;DHT22;54665;51.462;6.698;2024-03-08T08:57:40;7.66;66.67
67862;DHT22;54665;51.462;6.698;2024-03-08T08:59:41;7.97;66.31
67862;DHT22;54665;51.462;6.698;2024-03-08T09:01:41;8.08;65.70
67862;DHT22;54665;51.462;6.698;2024-03-08T09:03:41;8.18;65.72
67862;DHT22;54665;51.462;6.698;2024-03-08T09:05:42;8.38;64.69
67862;DHT22;54665;51.462;6.698;2024-03-08T09:07:45;8.29;64.73
67862;DHT22;54665;51.462;6.698;2024-03-08T09:09:45;8.59;64.32
67862;DHT22;54665;51.462;6.698;2024-03-08T09:11:46;8.35;64.50
67862;DHT22;54665;51.462;6.698;2024-03-08T09:13:46;8.43;63.86
67862;DHT22;54665;51.462;6.698;2024-03-08T09:15:46;8.80;63.53
67862;DHT22;54665;51.462;6.698;2024-03-08T09:17:47;9.04;62.55
67862;DHT22;54665;51.462;6.698;2024-03-08T09:19:47;9.07;61.90
67862;DHT22;54665;51.462;6.698;2024-03-08T09:21:47;8.69;63.29
67862;DHT22;54665;51.462;6.698;2024-03-08T09:23:47;9.08;62.84
67862;DHT22;54665;51.462;6.698;2024-03-08T09:25:48;8.94;63.54
67862;DHT22;54665;51.462;6.698;2024-03-08T09:27:48;9.23;62.56
67862;DHT22;54665;51.462;6.698;2024-03-08T09:29:48;8.97;61.75
67862;DHT22;54665;51.462;6.698;2024-03-08T09:31:49;9.11;61.85
67862;DHT22;54665;51.462;6.698;2024-03-08T09:33:49;9.04;61.95
67862;DHT22;54665;51.462;6.698;2024-03-08T09:35:49;9.25;61.50
67862;DHT22;54665;51.462;6.698;2024-03-08T09:37:49;9.24;62.00
67862;DHT22;54665;51.462;6.698;2024-03-08T09:39:50;9.63;61.43
67862;DHT22;54665;51.462;6.698;2024-03-08T09:41:50;9.54;60.74
67862;DHT22;54665;51.462;6.698;2024-03-08T09:43:50;9.24;62.43
67862;DHT22;54665;51.462;6.698;2024-03-08T09:45:51;9.05;63.28
67862;DHT22;54665;51.462;6.698;2024-03-08T09:47:52;9.48;61.27
67862;DHT22;54665;51.462;6.698;2024-03-08T09:49:52;9.17;61.35
67862;DHT22;54665;51.462;6.698;2024-03-08T09:51:53;9.54;60.69
67862;DHT22;54665;51.462;6.698;2024-03-08T09:53:53;9.54;61.00
67862;DHT22;54665;51.462;6.698;2024-03-08T09:55:53;9.51;59.91
67862;DHT22;54665;51.462;6.698;2024-03-08T09:57:54;9.23;60.81
67862;DHT22;54665;51.462;6.698;2024-03-08T09:59:54;9.41;60.60
67862;DHT22;54665;51.462;6.698;2024-03-08T10:01:55;9.46;60.32
67862;DHT22;54665;51.462;6.698;2024-03-08T10:03:57;9.14;60.58
67862;DHT22;54665;51.462;6.698;2024-03-08T10:05:57;9.61;60.43
67862;DHT22;54665;51.462;6.698;2024-03-08T10:07:58;9.93;59.69
67862;DHT22;54665;51.462;6.698;2024-03-08T10:09:59;10.06;59.68
67862;DHT22;54665;51.462;6.698;2024-03-08T10:11:59;9.86;60.23
67862;DHT22;54665;51.462;6.698;2024-03-08T10:14:00;9.49;59.47
67862;DHT22;54665;51.462;6.698;2024-03-08T10:16:01;9.83;59.85
67862;DHT22;54665;51.462;6.698;2024-03-08T10:18:01;10.26;60.16
67862;DHT22;54665;51.462;6.698;2024-03-08T10:20:01;10.16;58.38
67862;DHT22;54665;51.462;6.698;2024-03-08T10:22:02;10.33;58.90
67862;DHT22;54665;51.462;6.698;2024-03-08T10:24:02;10.05;58.64
67862;DHT22;54665;51.462;6.698;2024-03-08T10:26:13;9.69;60.18
67862;DHT22;54665;51.462;6.698;2024-03-08T10:28:13;10.37;59.61
67862;DHT22;54665;51.462;6.698;2024-03-08T10:30:15;10.26;58.23
67862;DHT22;54665;51.462;6.698;2024-03-08T10:32:16;10.24;58.38
67862;DHT22;54665;51.462;6.698;2024-03-08T10:34:17;10.50;58.38
67862;DHT22;54665;51.462;6.698;2024-03-08T10:36:17;10.48;58.59
67862;DHT22;54665;51.462;6.698;2024-03-08T10:38:19;10.57;57.47
67862;DHT22;54665;51.462;6.698;2024-03-08T10:40:24;10.74;58.11
67862;DHT22;54665;51.462;6.698;2024-03-08T10:42:28;10.85;58.55
67862;DHT22;54665;51.462;6.698;2024-03-08T10:48:58;11.26;56.90
67862;DHT22;54665;51.462;6.698;2024-03-08T10:51:02;10.98;56.14
67862;DHT22;54665;51.462;6.698;2024-03-08T10:53:03;11.12;56.29
67862;DHT22;54665;51.462;6.698;2024-03-08T10:55:06;11.02;56.38
67862;DHT22;54665;51.462;6.698;2024-03-08T10:57:07;11.09;57.14
67862;DHT22;54665;51.462;6.698;2024-03-08T10:59:09;11.32;56.12
67862;DHT22;54665;51.462;6.698;2024-03-08T11:01:10;11.56;56.00
67862;DHT22;54665;51.462;6.698;2024-03-08T11:05:42;11.50;54.38
67862;DHT22;54665;51.462;6.698;2024-03-08T11:07:42;11.86;55.58
67862;DHT22;54665;51.462;6.698;2024-03-08T11:09:43;11.97;54.53
67862;DHT22;54665;51.462;6.698;2024-03-08T11:11:43;12.04;54.76
67862;DHT22;54665;51.462;6.698;2024-03-08T11:13:43;12.25;53.30
67862;DHT22;54665;51.462;6.698;2024-03-08T11:15:44;12.27;53.92
67862;DHT22;54665;51.462;6.698;2024-03-08T11:17:48;12.73;54.26
67862;DHT22;54665;51.462;6.698;2024-03-08T11:19:49;12.72;53.39
67862;DHT22;54665;51.462;6.698;2024-03-08T11:22:02;12.58;52.60
67862;DHT22;54665;51.462;6.698;2024-03-08T11:24:07;12.34;53.05
67862;DHT22;54665;51.462;6.698;2024-03-08T11:26:18;12.28;52.84
67862;DHT22;54665;51.462;6.698;2024-03-08T11:28:21;12.21;53.49
67862;DHT22;54665;51.462;6.698;2024-03-08T11:30:23;12.75;52.42
67862;DHT22;54665;51.462;6.698;2024-03-08T11:32:27;12.04;51.81
67862;DHT22;54665;51.462;6.698;2024-03-08T11:34:28;12.07;53.44
67862;DHT22;54665;51.462;6.698;2024-03-08T11:36:29;12.22;54.06
67862;DHT22;54665;51.462;6.698;2024-03-08T11:38:32;12.48;54.21
67862;DHT22;54665;51.462;6.698;2024-03-08T11:40:32;12.44;53.31
67862;DHT22;54665;51.462;6.698;2024-03-08T11:42:35;11.94;54.10
67862;DHT22;54665;51.462;6.698;2024-03-08T11:44:35;11.94;54.41
67862;DHT22;54665;51.462;6.698;2024-03-08T11:46:36;12.52;53.60
67862;DHT22;54665;51.462;6.698;2024-03-08T11:48:36;11.25;55.11
67862;DHT22;54665;51.462;6.698;2024-03-08T11:50:36;11.55;55.41
67862;DHT22;54665;51.462;6.698;2024-03-08T11:52:37;12.48;53.78
67862;DHT22;54665;51.462;6.698;2024-03-08T11:54:37;12.46;53.83
67862;DHT22;54665;51.462;6.698;2024-03-08T11:56:37;12.69;53.63
67862;DHT22;54665;51.462;6.698;2024-03-08T11:58:38;11.83;54.85
67862;DHT22;54665;51.462;6.698;2024-03-08T12:00:39;12.20;54.43
67862;DHT22;54665;51.462;6.698;2024-03-08T12:02:39;12.11;54.73
67862;DHT22;54665;51.462;6.698;2024-03-08T12:04:39;12.30;55.93
67862;DHT22;54665;51.462;6.698;2024-03-08T12:06:40;12.68;53.24
67862;DHT22;54665;51.462;6.698;2024-03-08T12:08:41;13.19;52.91
67862;DHT22;54665;51.462;6.698;2024-03-08T12:10:41;13.37;52.24
67862;DHT22;54665;51.462;6.698;2024-03-08T12:12:41;12.65;52.15
67862;DHT22;54665;51.462;6.698;2024-03-08T12:14:43;13.09;54.32
67862;DHT22;54665;51.462;6.698;2024-03-08T12:16:44;12.76;53.19
67862;DHT22;54665;51.462;6.698;2024-03-08T12:18:44;13.16;53.44
67862;DHT22;54665;51.462;6.698;2024-03-08T12:20:45;12.99;55.59
67862;DHT22;54665;51.462;6.698;2024-03-08T12:22:45;12.78;53.52
67862;DHT22;54665;51.462;6.698;2024-03-08T12:25:03;12.48;53.82
67862;DHT22;54665;51.462;6.698;2024-03-08T12:27:17;12.45;52.98
67862;DHT22;54665;51.462;6.698;2024-03-08T12:29:23;12.90;52.45
67862;DHT22;54665;51.462;6.698;2024-03-08T12:31:24;12.86;52.49
67862;DHT22;54665;51.462;6.698;2024-03-08T12:33:24;12.66;53.92
67862;DHT22;54665;51.462;6.698;2024-03-08T12:35:27;13.14;53.17
67862;DHT22;54665;51.462;6.698;2024-03-08T12:37:27;13.14;52.94
67862;DHT22;54665;51.462;6.698;2024-03-08T12:39:27;12.20;52.63
67862;DHT22;54665;51.462;6.698;2024-03-08T12:41:30;12.53;53.89
67862;DHT22;54665;51.462;6.698;2024-03-08T12:43:30;12.25;52.88
67862;DHT22;54665;51.462;6.698;2024-03-08T12:45:30;12.78;52.84
67862;DHT22;54665;51.462;6.698;2024-03-08T12:47:31;13.10;52.77
67862;DHT22;54665;51.462;6.698;2024-03-08T12:49:31;13.09;51.61
67862;DHT22;54665;51.462;6.698;2024-03-08T12:51:31;13.68;52.15
67862;DHT22;54665;51.462;6.698;2024-03-08T12:53:31;13.86;51.05
67862;DHT22;54665;51.462;6.698;2024-03-08T12:55:32;14.01;50.87
67862;DHT22;54665;51.462;6.698;2024-03-08T12:57:34;13.77;49.53
67862;DHT22;54665;51.462;6.698;2024-03-08T12:59:35;13.82;51.56